Time;durP1;ratioP1;P1;durP2;ratioP2;P2;SDS_P1;SDS_P2;PMS_P1;PMS_P2;Temp;Humidity;BMP_temperature;BMP_pressure;BME280_temperature;BME280_humidity;BME280_pressure;Samples;Min_cycle;Max_cycle;Signal;HPM_P1;HPM_P2
2022/08/23 00:02:05;;;;;;;18.55;11.63;;;;;;;17.86;100.00;98666.03;5082959;28;20035;-88
2022/08/23 00:04:34;;;;;;;18.95;11.60;;;;;;;17.82;100.00;98651.66;5080119;28;20020;-89
2022/08/23 00:07:02;;;;;;;15.73;11.57;;;;;;;17.81;100.00;98658.81;5072888;28;20051;-89
2022/08/23 00:09:28;;;;;;;18.60;13.00;;;;;;;17.80;100.00;98661.75;5081408;28;20093;-88
2022/08/23 00:12:01;;;;;;;22.85;14.80;;;;;;;17.82;100.00;98660.41;5064375;28;20028;-89
2022/08/23 00:14:30;;;;;;;23.27;14.07;;;;;;;17.83;100.00;98655.94;5078868;28;20175;-88
2022/08/23 00:16:57;;;;;;;22.42;14.32;;;;;;;17.82;100.00;98660.41;5080651;28;20028;-90
2022/08/23 00:19:24;;;;;;;24.98;14.82;;;;;;;17.80;100.00;98665.19;5081283;28;20477;-87
2022/08/23 00:21:51;;;;;;;25.00;15.07;;;;;;;17.79;100.00;98662.78;5081816;28;20032;-88
2022/08/23 00:24:22;;;;;;;29.25;16.23;;;;;;;17.76;100.00;98658.78;5082325;28;20043;-88
2022/08/23 00:27:11;;;;;;;26.00;15.25;;;;;;;17.73;100.00;98651.31;5074473;28;20024;-88
2022/08/23 00:29:46;;;;;;;29.38;16.23;;;;;;;17.70;100.00;98651.81;5080228;28;20032;-88
2022/08/23 00:32:16;;;;;;;24.95;14.52;;;;;;;17.67;100.00;98653.13;5076382;28;20047;-86
2022/08/23 00:34:41;;;;;;;24.63;15.38;;;;;;;17.49;100.00;98648.97;5079056;28;20024;-87
2022/08/23 00:37:08;;;;;;;27.55;16.02;;;;;;;17.39;100.00;98651.50;5079834;28;20089;-89
2022/08/23 00:39:34;;;;;;;31.65;16.38;;;;;;;17.46;100.00;98652.09;5079541;28;20435;-87
2022/08/23 00:47:53;;;;;;;28.15;16.98;;;;;;;17.49;100.00;98659.59;5087420;28;20020;-89
2022/08/23 00:50:38;;;;;;;32.25;17.80;;;;;;;17.59;100.00;98652.78;5084584;28;20059;-89
2022/08/23 00:53:13;;;;;;;37.42;18.67;;;;;;;17.48;100.00;98659.81;5083950;28;20034;-88
2022/08/23 00:55:42;;;;;;;38.75;19.23;;;;;;;17.47;100.00;98656.34;5078892;28;20054;-87
2022/08/23 00:58:12;;;;;;;33.95;17.23;;;;;;;17.51;100.00;98654.81;5087456;28;20081;-88
2022/08/23 01:00:37;;;;;;;33.53;17.42;;;;;;;17.56;100.00;98656.72;5084810;28;20029;-88
2022/08/23 01:03:07;;;;;;;28.50;16.48;;;;;;;17.61;100.00;98655.97;5086216;28;20080;-86
2022/08/23 01:06:20;;;;;;;37.15;18.02;;;;;;;17.60;100.00;98659.69;5085693;28;20048;-88
2022/08/23 01:08:51;;;;;;;36.47;18.08;;;;;;;17.60;100.00;98660.50;5082519;28;20055;-88
2022/08/23 01:11:31;;;;;;;42.08;18.13;;;;;;;17.56;100.00;98657.53;5084719;28;20024;-87
2022/08/23 01:14:02;;;;;;;36.58;17.85;;;;;;;17.46;100.00;98653.97;5084828;28;20393;-87
2022/08/23 01:16:35;;;;;;;39.00;19.52;;;;;;;17.46;100.00;98654.75;5082193;28;20021;-88
2022/08/23 01:19:04;;;;;;;40.77;19.53;;;;;;;17.31;100.00;98646.66;5079105;28;20024;-87
2022/08/23 01:21:44;;;;;;;43.55;21.17;;;;;;;17.46;100.00;98644.13;5087073;28;20741;-88
2022/08/23 01:24:11;;;;;;;42.53;20.67;;;;;;;17.39;100.00;98648.84;5084446;28;20043;-89
2022/08/23 01:26:37;;;;;;;44.80;22.23;;;;;;;17.40;100.00;98656.56;5088633;28;20514;-88
2022/08/23 01:29:05;;;;;;;47.63;22.63;;;;;;;17.36;100.00;98654.66;5086902;28;20035;-88
2022/08/23 01:31:31;;;;;;;46.38;21.75;;;;;;;17.40;100.00;98651.28;5083019;28;20111;-88
2022/08/23 01:34:01;;;;;;;49.78;23.00;;;;;;;17.49;100.00;98653.47;5085550;28;20461;-90
2022/08/23 01:36:27;;;;;;;48.28;22.10;;;;;;;17.39;100.00;98651.50;5085709;28;20162;-89
2022/08/23 01:38:53;;;;;;;46.80;21.88;;;;;;;17.43;100.00;98649.94;5083385;28;20051;-88
2022/08/23 01:41:19;;;;;;;48.97;22.70;;;;;;;17.44;100.00;98650.75;5083935;28;20024;-88
2022/08/23 01:43:45;;;;;;;35.55;19.33;;;;;;;17.50;100.00;98650.56;5067227;28;20051;-88
2022/08/23 01:46:18;;;;;;;38.35;18.48;;;;;;;17.52;100.00;98652.97;5063057;28;20482;-88
2022/08/23 01:48:47;;;;;;;32.03;18.63;;;;;;;17.51;100.00;98661.97;5078515;28;20517;-88
2022/08/23 01:51:15;;;;;;;39.88;20.88;;;;;;;17.55;100.00;98665.72;5064345;28;20089;-88
2022/08/23 01:53:41;;;;;;;36.75;19.88;;;;;;;17.53;100.00;98668.66;5063499;28;20386;-87
2022/08/23 01:56:07;;;;;;;34.35;19.02;;;;;;;17.53;100.00;98662.53;5079180;28;20485;-88
2022/08/23 01:58:35;;;;;;;29.98;17.02;;;;;;;17.56;100.00;98675.28;5082531;28;20032;-88
2022/08/23 02:01:03;;;;;;;25.92;15.85;;;;;;;17.59;100.00;98666.03;5079454;28;20386;-88
2022/08/23 02:03:30;;;;;;;27.65;16.83;;;;;;;17.63;100.00;98664.47;5084094;28;20032;-88
2022/08/23 02:05:57;;;;;;;33.42;19.52;;;;;;;17.69;100.00;98668.81;5067876;28;20437;-88
2022/08/23 02:11:10;;;;;;;34.40;19.60;;;;;;;17.69;100.00;98666.94;5086262;28;20492;-87
2022/08/23 02:13:36;;;;;;;29.60;16.92;;;;;;;17.69;100.00;98671.47;5080583;28;20081;-88
2022/08/23 02:16:02;;;;;;;27.38;16.42;;;;;;;17.71;100.00;98677.31;5082153;28;20474;-89
2022/08/23 02:18:29;;;;;;;27.48;17.13;;;;;;;17.70;100.00;98675.72;5082790;28;20497;-88
2022/08/23 02:20:55;;;;;;;25.67;16.38;;;;;;;17.72;100.00;98676.25;5065915;28;20031;-88
2022/08/23 02:23:21;;;;;;;24.00;15.38;;;;;;;17.67;100.00;98666.38;5084581;28;20028;-89
2022/08/23 02:25:50;;;;;;;26.45;17.00;;;;;;;17.64;100.00;98668.72;5067273;28;20104;-89
2022/08/23 02:28:16;;;;;;;24.83;15.52;;;;;;;17.61;100.00;98663.94;5079237;28;20040;-88
2022/08/23 02:30:44;;;;;;;20.73;14.10;;;;;;;17.58;100.00;98661.78;5084648;28;20038;-87
2022/08/23 02:33:10;;;;;;;22.52;14.80;;;;;;;17.53;100.00;98667.81;5079102;28;20546;-89
2022/08/23 02:35:36;;;;;;;23.42;13.98;;;;;;;17.53;100.00;98667.81;5058631;28;20056;-87
2022/08/23 02:38:03;;;;;;;23.17;13.95;;;;;;;17.50;100.00;98666.50;5081065;28;20024;-87
2022/08/23 02:40:29;;;;;;;17.73;12.52;;;;;;;17.49;100.00;98664.06;5080455;28;20021;-88
2022/08/23 02:42:55;;;;;;;20.42;13.57;;;;;;;17.56;100.00;98664.66;5083762;28;20101;-88
2022/08/23 02:45:20;;;;;;;18.33;12.90;;;;;;;17.61;100.00;98677.19;5076409;28;20486;-89
2022/08/23 02:47:46;;;;;;;16.35;11.73;;;;;;;17.66;100.00;98656.00;5077348;28;20410;-88
2022/08/23 02:50:12;;;;;;;17.02;11.88;;;;;;;17.67;100.00;98660.25;5080052;28;20081;-88
2022/08/23 02:52:38;;;;;;;29.67;15.38;;;;;;;17.66;100.00;98663.97;5081731;28;20115;-89
2022/08/23 02:55:06;;;;;;;21.75;13.38;;;;;;;17.70;100.00;98662.44;5083785;28;20116;-89
2022/08/23 02:57:32;;;;;;;20.95;12.15;;;;;;;17.68;100.00;98662.69;5079903;28;20107;-89
2022/08/23 02:59:58;;;;;;;21.77;13.55;;;;;;;17.71;100.00;98661.38;5063385;28;20016;-88
2022/08/23 03:02:24;;;;;;;17.38;11.93;;;;;;;17.76;100.00;98663.28;5084013;28;20081;-90
2022/08/23 03:04:50;;;;;;;21.60;13.02;;;;;;;17.73;100.00;98659.28;5064611;28;20039;-87
2022/08/23 03:07:17;;;;;;;18.13;12.05;;;;;;;17.77;100.00;98656.91;5078607;28;20375;-88
2022/08/23 03:09:43;;;;;;;19.73;11.73;;;;;;;17.78;100.00;98651.34;5065470;28;20032;-89
2022/08/23 03:12:09;;;;;;;20.73;12.57;;;;;;;17.76;100.00;98658.78;5081055;28;20039;-88
2022/08/23 03:14:36;;;;;;;22.80;13.70;;;;;;;17.75;100.00;98664.31;5086700;28;20067;-87
2022/08/23 03:17:03;;;;;;;26.30;14.40;;;;;;;17.73;100.00;98653.16;5084149;28;20028;-88
2022/08/23 03:19:29;;;;;;;20.20;13.20;;;;;;;17.76;100.00;98658.78;5061539;28;20066;-88
2022/08/23 03:21:55;;;;;;;23.48;13.75;;;;;;;17.76;100.00;98660.63;5063313;28;20024;-88
2022/08/23 03:24:21;;;;;;;26.00;14.77;;;;;;;17.73;100.00;98664.59;5081139;28;20032;-88
2022/08/23 03:26:46;;;;;;;33.95;16.42;;;;;;;17.72;100.00;98663.00;5079180;28;20020;-89
2022/08/23 03:29:13;;;;;;;27.30;15.68;;;;;;;17.72;100.00;98651.56;5080164;28;20072;-89
2022/08/23 03:31:38;;;;;;;26.55;14.70;;;;;;;17.78;100.00;98648.72;5084077;28;20048;-89
2022/08/23 03:34:04;;;;;;;25.60;14.25;;;;;;;17.76;100.00;98653.47;5065055;28;20059;-90
2022/08/23 03:36:30;;;;;;;25.10;13.75;;;;;;;17.79;100.00;98662.78;5080844;28;20031;-88
2022/08/23 03:38:57;;;;;;;24.58;13.18;;;;;;;17.77;100.00;98659.56;5082187;28;20502;-88
2022/08/23 03:41:23;;;;;;;38.28;16.88;;;;;;;17.76;100.00;98666.75;5076402;28;20025;-87
2022/08/23 03:43:50;;;;;;;27.83;15.48;;;;;;;17.76;100.00;98669.41;5079502;28;20033;-89
2022/08/23 03:46:24;;;;;;;28.65;15.15;;;;;;;17.78;100.00;98667.28;5082203;28;20028;-88
2022/08/23 03:48:56;;;;;;;24.45;14.35;;;;;;;17.69;100.00;98664.28;5084554;28;20046;-88
2022/08/23 03:51:24;;;;;;;25.00;13.67;;;;;;;17.67;100.00;98661.09;5082169;28;20442;-88
2022/08/23 03:53:50;;;;;;;24.55;14.20;;;;;;;17.69;100.00;98658.19;5080793;28;20352;-88
2022/08/23 03:56:35;;;;;;;23.85;13.88;;;;;;;17.68;100.00;98656.56;5076462;28;20055;-87
2022/08/23 03:59:06;;;;;;;24.75;13.32;;;;;;;17.64;100.00;98658.94;5078417;28;20023;-87
2022/08/23 04:01:32;;;;;;;24.70;13.55;;;;;;;17.62;100.00;98668.19;5063552;28;20028;-88
2022/08/23 04:04:00;;;;;;;23.83;13.70;;;;;;;17.63;100.00;98672.44;5076068;28;20106;-88
2022/08/23 04:06:27;;;;;;;31.58;15.20;;;;;;;17.61;100.00;98682.50;5081221;28;20097;-89
2022/08/23 04:08:54;;;;;;;35.75;18.42;;;;;;;17.57;100.00;98692.81;5085577;28;20115;-88
2022/08/23 04:11:20;;;;;;;33.92;16.83;;;;;;;17.58;100.00;98693.63;5059921;28;20032;-88
2022/08/23 04:13:46;;;;;;;37.35;17.25;;;;;;;17.58;100.00;98697.06;5081054;28;20114;-89
2022/08/23 04:16:12;;;;;;;41.13;17.20;;;;;;;17.61;100.00;98699.25;5082823;28;20459;-89
2022/08/23 04:18:39;;;;;;;28.70;14.30;;;;;;;17.65;100.00;98683.59;5082542;28;20105;-89
2022/08/23 04:21:11;;;;;;;25.52;15.50;;;;;;;17.65;100.00;98678.28;5079899;28;20028;-89
2022/08/23 04:23:38;;;;;;;24.67;14.10;;;;;;;17.55;100.00;98665.72;5078219;28;20470;-89
2022/08/23 04:26:05;;;;;;;21.65;12.43;;;;;;;17.53;100.00;98673.94;5079890;28;20040;-86
2022/08/23 04:28:32;;;;;;;24.55;13.30;;;;;;;17.53;100.00;98679.25;5077993;28;20110;-86
2022/08/23 04:30:59;;;;;;;30.67;15.10;;;;;;;17.49;100.00;98670.19;5079980;28;20032;-87
2022/08/23 04:33:26;;;;;;;23.83;13.32;;;;;;;17.46;100.00;98665.38;5076366;28;20046;-87
2022/08/23 04:35:52;;;;;;;22.02;13.20;;;;;;;17.50;100.00;98671.81;5082768;28;20032;-88
2022/08/23 04:38:18;;;;;;;22.73;12.93;;;;;;;17.48;100.00;98663.25;5077283;28;20073;-89
2022/08/23 04:43:28;;;;;;;21.10;12.73;;;;;;;17.44;100.00;98667.47;5083338;28;20032;-88
2022/08/23 04:45:55;;;;;;;21.45;13.15;;;;;;;17.43;100.00;98671.16;5071101;28;20098;-88
2022/08/23 04:48:22;;;;;;;24.65;13.43;;;;;;;17.40;100.00;98667.19;5061623;28;20057;-89
2022/08/23 04:50:47;;;;;;;31.27;15.50;;;;;;;17.36;100.00;98679.31;5060092;28;20470;-89
2022/08/23 04:53:13;;;;;;;24.58;13.63;;;;;;;17.37;100.00;98683.56;5079927;28;20039;-89
2022/08/23 04:55:40;;;;;;;20.95;12.90;;;;;;;17.39;100.00;98691.28;5062338;28;20028;-89
2022/08/23 04:58:07;;;;;;;25.15;12.88;;;;;;;17.42;100.00;98690.78;5084093;28;20039;-89
2022/08/23 05:00:32;;;;;;;29.58;14.60;;;;;;;17.45;100.00;98692.94;5079687;28;20500;-88
2022/08/23 05:03:00;;;;;;;28.77;15.45;;;;;;;17.40;100.00;98698.19;5083088;28;20497;-88
2022/08/23 05:05:26;;;;;;;25.73;13.60;;;;;;;17.42;100.00;98696.09;5084827;28;20024;-89
2022/08/23 05:07:53;;;;;;;24.05;13.10;;;;;;;17.44;100.00;98694.00;5078175;28;20035;-89
2022/08/23 05:10:20;;;;;;;31.58;15.05;;;;;;;17.41;100.00;98694.50;5086432;28;20044;-89
2022/08/23 05:12:47;;;;;;;24.42;13.48;;;;;;;17.45;100.00;98703.56;5066655;28;20042;-88
2022/08/23 05:15:12;;;;;;;22.33;12.73;;;;;;;17.47;100.00;98696.16;5082194;28;20029;-89
2022/08/23 05:17:41;;;;;;;22.15;13.77;;;;;;;17.53;100.00;98703.13;5078480;28;20429;-88
2022/08/23 05:20:09;;;;;;;26.58;14.07;;;;;;;17.60;100.00;98707.44;5078565;28;20024;-89
2022/08/23 05:22:39;;;;;;;23.55;14.20;;;;;;;17.65;100.00;98704.84;5078537;28;20389;-89
2022/08/23 05:25:07;;;;;;;26.17;15.30;;;;;;;17.69;100.00;98705.97;5065088;28;20115;-88
2022/08/23 05:27:32;;;;;;;28.42;15.77;;;;;;;17.72;100.00;98704.66;5080587;28;20032;-88
2022/08/23 05:29:58;;;;;;;26.42;14.98;;;;;;;17.68;100.00;98697.19;5085331;28;20039;-89
2022/08/23 05:32:24;;;;;;;22.80;14.48;;;;;;;17.70;100.00;98699.59;5085622;28;20032;-88
2022/08/23 05:34:49;;;;;;;26.73;15.35;;;;;;;17.54;100.00;98695.97;5067489;28;20036;-89
2022/08/23 05:37:16;;;;;;;26.13;15.30;;;;;;;17.70;100.00;98712.88;5095335;28;20050;-89
2022/08/23 05:39:42;;;;;;;29.27;17.08;;;;;;;17.70;100.00;98718.19;5092652;28;20028;-89
2022/08/23 05:42:11;;;;;;;24.58;15.35;;;;;;;17.78;100.00;98712.41;5087043;28;20032;-86
2022/08/23 05:44:37;;;;;;;26.45;15.73;;;;;;;17.80;100.00;98715.63;5086275;28;20028;-87
2022/08/23 05:47:05;;;;;;;25.42;15.68;;;;;;;17.83;100.00;98723.06;5088540;28;20035;-88
2022/08/23 05:49:35;;;;;;;33.50;19.20;;;;;;;17.91;100.00;98726.34;5085470;28;20029;-88
2022/08/23 05:52:04;;;;;;;30.77;17.77;;;;;;;18.06;100.00;98726.50;5078988;28;20500;-88
2022/08/23 05:54:30;;;;;;;27.95;16.42;;;;;;;18.12;100.00;98725.53;5069853;28;20024;-88
2022/08/23 05:56:55;;;;;;;28.55;17.20;;;;;;;18.09;100.00;98718.06;5085134;28;20036;-88
2022/08/23 05:59:21;;;;;;;28.88;16.48;;;;;;;18.16;100.00;98719.69;5086728;28;20058;-88
2022/08/23 06:01:47;;;;;;;29.05;16.50;;;;;;;18.26;100.00;98719.78;5085802;28;20700;-89
2022/08/23 06:04:13;;;;;;;31.73;18.25;;;;;;;18.33;100.00;98719.56;5085550;28;20028;-89
2022/08/23 06:06:40;;;;;;;31.13;17.48;;;;;;;18.37;100.00;98724.13;5088831;28;20028;-89
2022/08/23 06:09:13;;;;;;;28.67;16.50;;;;;;;18.45;100.00;98725.53;5061388;28;20067;-88
2022/08/23 06:11:39;;;;;;;30.48;17.30;;;;;;;18.46;100.00;98721.81;5062953;28;20112;-89
2022/08/23 06:14:08;;;;;;;31.05;17.70;;;;;;;18.56;100.00;98739.69;5065551;28;20474;-89
2022/08/23 06:16:43;;;;;;;28.08;16.52;;;;;;;18.59;100.00;98739.16;5080627;28;20050;-88
2022/08/23 06:19:09;;;;;;;29.38;17.13;;;;;;;18.64;100.00;98739.19;5079820;28;20033;-90
2022/08/23 06:21:36;;;;;;;31.17;17.25;;;;;;;18.73;100.00;98733.44;5083417;28;20428;-88
2022/08/23 06:24:02;;;;;;;30.17;18.00;;;;;;;18.82;100.00;98729.22;5068466;28;20038;-89
2022/08/23 06:26:32;;;;;;;30.63;16.45;;;;;;;18.93;100.00;98725.56;5081228;28;20366;-87
2022/08/23 06:29:01;;;;;;;33.13;18.15;;;;;;;19.00;100.00;98725.38;5076012;28;20127;-89
2022/08/23 06:31:46;;;;;;;36.05;18.27;;;;;;;19.00;100.00;98724.56;5093150;28;20435;-86
2022/08/23 06:34:22;;;;;;;34.58;18.42;;;;;;;19.01;100.00;98726.97;5082779;28;20028;-89
2022/08/23 06:36:51;;;;;;;31.23;17.98;;;;;;;19.07;100.00;98722.50;5071212;28;20464;-86
2022/08/23 06:39:19;;;;;;;31.33;17.60;;;;;;;19.14;100.00;98723.06;5089980;28;20085;-87
2022/08/23 06:41:47;;;;;;;39.70;19.27;;;;;;;19.08;100.00;98719.56;5068772;28;20145;-87
2022/08/23 06:44:14;;;;;;;35.80;19.13;;;;;;;19.11;100.00;98715.59;5082393;28;20050;-88
2022/08/23 06:46:39;;;;;;;36.08;19.70;;;;;;;19.18;100.00;98723.34;5084572;28;20028;-86
2022/08/23 06:49:06;;;;;;;33.85;17.90;;;;;;;19.21;100.00;98723.59;5090416;28;20504;-86
2022/08/23 06:51:35;;;;;;;33.58;17.20;;;;;;;19.16;100.00;98728.91;5077749;28;20029;-88
2022/08/23 06:54:08;;;;;;;37.10;18.08;;;;;;;19.02;100.00;98717.13;5070334;28;20031;-88
2022/08/23 06:56:34;;;;;;;30.40;16.92;;;;;;;19.10;100.00;98716.66;5073835;28;20115;-89
2022/08/23 06:59:04;;;;;;;33.80;16.92;;;;;;;19.12;100.00;98706.56;5098059;28;20543;-88
2022/08/23 07:01:41;;;;;;;32.80;17.67;;;;;;;19.28;100.00;98712.72;5082843;28;20028;-85
2022/08/23 07:04:08;;;;;;;31.17;17.10;;;;;;;19.32;100.00;98715.69;5067402;28;20032;-87
2022/08/23 07:06:35;;;;;;;30.83;17.60;;;;;;;19.36;100.00;98717.56;5093621;28;20035;-90
2022/08/23 07:09:03;;;;;;;35.85;18.17;;;;;;;19.30;100.00;98715.94;5076103;28;20040;-90
2022/08/23 07:11:30;;;;;;;32.20;18.83;;;;;;;19.35;100.00;98723.13;5080246;28;20032;-87
2022/08/23 07:13:58;;;;;;;33.70;18.05;;;;;;;19.47;100.00;98723.72;5080430;28;20122;-90
2022/08/23 07:16:24;;;;;;;33.10;17.27;;;;;;;19.41;100.00;98727.41;5065503;28;20089;-87
2022/08/23 07:18:51;;;;;;;34.03;18.38;;;;;;;19.46;100.00;98724.78;5065403;28;20032;-89
2022/08/23 07:21:18;;;;;;;33.03;18.60;;;;;;;19.54;100.00;98737.59;5085825;28;20089;-90
2022/08/23 07:23:45;;;;;;;34.05;18.30;;;;;;;19.61;100.00;98739.19;5062297;28;20043;-88
2022/08/23 07:26:14;;;;;;;31.55;17.88;;;;;;;19.72;100.00;98743.50;5076534;28;20043;-87
2022/08/23 07:28:40;;;;;;;33.92;18.48;;;;;;;19.70;100.00;98740.28;5084165;28;20031;-87
2022/08/23 07:31:14;;;;;;;29.75;17.70;;;;;;;19.82;100.00;98748.84;5076118;28;20143;-86
2022/08/23 07:33:40;;;;;;;31.67;16.65;;;;;;;19.82;100.00;98750.72;5076363;28;20040;-90
2022/08/23 07:36:07;;;;;;;31.30;18.13;;;;;;;19.91;100.00;98751.81;5071712;28;20085;-86
2022/08/23 07:38:34;;;;;;;32.50;18.77;;;;;;;19.94;100.00;98742.50;5077954;28;20035;-87
2022/08/23 07:41:02;;;;;;;27.83;17.52;;;;;;;20.15;100.00;98748.69;5077501;28;20028;-86
2022/08/23 07:43:28;;;;;;;34.38;18.33;;;;;;;20.26;100.00;98746.81;5082547;28;20359;-87
2022/08/23 07:45:54;;;;;;;28.90;16.67;;;;;;;20.58;100.00;98748.41;5089753;28;20064;-87
2022/08/23 07:48:20;;;;;;;32.90;18.73;;;;;;;20.66;100.00;98763.88;5060461;28;20032;-88
2022/08/23 07:51:02;;;;;;;28.83;17.27;;;;;;;20.94;100.00;98756.38;5060338;28;20082;-87
2022/08/23 07:53:28;;;;;;;26.63;16.88;;;;;;;21.09;100.00;98763.53;5064497;28;20036;-87
2022/08/23 07:55:54;;;;;;;28.17;17.33;;;;;;;21.14;100.00;98762.75;5080282;28;20067;-87
2022/08/23 07:58:21;;;;;;;23.27;15.60;;;;;;;20.73;100.00;98760.13;5087222;28;20032;-90
2022/08/23 08:00:48;;;;;;;22.70;14.02;;;;;;;20.76;100.00;98762.25;5082977;28;20028;-88
2022/08/23 08:03:16;;;;;;;23.50;14.23;;;;;;;20.87;100.00;98777.22;5061669;28;20034;-90
2022/08/23 08:05:42;;;;;;;21.10;14.07;;;;;;;20.86;100.00;98770.28;5060975;28;20028;-90
2022/08/23 08:08:08;;;;;;;18.27;13.38;;;;;;;21.07;100.00;98775.59;5085862;28;20378;-89
2022/08/23 08:10:42;;;;;;;17.77;13.55;;;;;;;21.29;100.00;98777.91;5068188;28;20033;-89
2022/08/23 08:13:10;;;;;;;17.98;13.48;;;;;;;21.25;100.00;98775.00;5082172;28;20048;-88
2022/08/23 08:15:40;;;;;;;16.73;12.52;;;;;;;21.47;100.00;98773.84;5067148;28;20126;-90
2022/08/23 08:18:06;;;;;;;14.80;12.13;;;;;;;21.40;100.00;98774.16;5076887;28;20115;-88
2022/08/23 08:20:34;;;;;;;17.50;13.68;;;;;;;21.31;100.00;98774.97;5066656;28;20100;-90
2022/08/23 08:23:02;;;;;;;14.73;12.52;;;;;;;21.06;100.00;98774.78;5067387;28;20036;-88
2022/08/23 08:25:33;;;;;;;11.95;10.57;;;;;;;21.13;100.00;98769.16;5077992;28;20031;-88
2022/08/23 08:27:59;;;;;;;13.35;11.07;;;;;;;21.22;100.00;98772.88;5063647;28;20028;-90
2022/08/23 08:30:25;;;;;;;13.00;11.05;;;;;;;21.12;100.00;98770.22;5077531;28;20028;-89
2022/08/23 08:32:50;;;;;;;14.00;12.20;;;;;;;21.21;100.00;98776.59;5070201;28;20024;-88
2022/08/23 08:35:16;;;;;;;13.65;11.70;;;;;;;21.12;100.00;98768.34;5065468;28;20028;-89
2022/08/23 08:37:42;;;;;;;14.05;11.70;;;;;;;21.22;100.00;98772.06;5067209;28;20028;-87
2022/08/23 08:40:09;;;;;;;16.98;11.32;;;;;;;21.36;100.00;98780.28;5083655;28;20080;-86
2022/08/23 08:43:05;;;;;;;14.18;12.18;;;;;;;21.43;100.00;98788.81;5057300;28;20481;-86
2022/08/23 08:46:10;;;;;;;13.30;10.82;;;;;;;21.54;100.00;98786.91;5079580;28;20046;-85
2022/08/23 08:48:48;;;;;;;12.15;10.48;;;;;;;21.69;100.00;98781.50;5065826;28;20126;-85
2022/08/23 08:51:29;;;;;;;17.50;11.13;;;;;;;21.85;100.00;98786.78;5076864;28;20037;-84
2022/08/23 08:53:56;;;;;;;12.07;10.10;;;;;;;22.05;100.00;98788.56;5082078;28;20032;-85
2022/08/23 08:56:26;;;;;;;11.93;9.95;;;;;;;22.14;100.00;98787.97;5077487;28;20029;-85
2022/08/23 08:58:57;;;;;;;12.00;10.00;;;;;;;22.34;100.00;98787.81;5078362;28;20028;-85
2022/08/23 09:01:25;;;;;;;10.45;8.48;;;;;;;22.42;100.00;98780.28;5080396;28;20020;-86
2022/08/23 09:03:52;;;;;;;10.80;8.70;;;;;;;22.34;100.00;98782.47;5081069;28;20056;-85
2022/08/23 09:06:22;;;;;;;10.05;8.57;;;;;;;22.21;100.00;98785.78;5085814;28;20462;-86
2022/08/23 09:09:06;;;;;;;9.82;8.23;;;;;;;22.22;100.00;98779.38;5082555;28;20062;-85
2022/08/23 09:11:44;;;;;;;9.00;8.10;;;;;;;22.21;100.00;98786.56;5075776;28;20120;-85
2022/08/23 09:14:12;;;;;;;9.07;8.18;;;;;;;22.14;100.00;98786.09;5088095;28;20024;-85
2022/08/23 09:16:51;;;;;;;9.85;8.63;;;;;;;22.13;100.00;98778.34;5062432;28;20437;-86
2022/08/23 09:19:20;;;;;;;8.70;7.85;;;;;;;22.04;100.00;98776.28;5079698;28;20386;-85
2022/08/23 09:22:00;;;;;;;7.85;7.00;;;;;;;22.34;100.00;98779.78;5081961;28;20029;-87
2022/08/23 09:24:27;;;;;;;18.55;8.00;;;;;;;22.52;100.00;98780.22;5083686;28;20036;-87
2022/08/23 09:26:53;;;;;;;14.30;6.55;;;;;;;22.94;100.00;98770.75;5083133;28;20499;-87
2022/08/23 09:29:28;;;;;;;8.90;5.15;;;;;;;23.23;100.00;98782.50;5087092;28;20127;-87
2022/08/23 09:32:25;;;;;;;6.30;5.68;;;;;;;23.53;100.00;98769.88;5081873;28;20089;-87
2022/08/23 09:34:51;;;;;;;5.40;4.90;;;;;;;23.65;100.00;98767.53;5080111;28;20032;-86
2022/08/23 09:37:23;;;;;;;5.10;4.60;;;;;;;23.81;100.00;98778.88;5081172;28;20067;-87
2022/08/23 09:39:50;;;;;;;6.75;4.53;;;;;;;23.62;100.00;98773.47;5080051;28;20084;-87
2022/08/23 09:42:30;;;;;;;4.88;3.90;;;;;;;23.82;100.00;98774.31;5081820;28;20095;-85
2022/08/23 09:44:56;;;;;;;6.03;4.20;;;;;;;24.02;100.00;98770.56;5062966;28;20037;-87
2022/08/23 09:47:35;;;;;;;5.47;4.05;;;;;;;24.07;100.00;98767.81;5087372;28;20348;-87
2022/08/23 09:50:16;;;;;;;5.03;3.50;;;;;;;24.24;100.00;98761.13;5079561;28;20036;-84
2022/08/23 09:52:42;;;;;;;4.40;3.45;;;;;;;24.47;100.00;98758.63;5079604;28;20025;-86
2022/08/23 09:55:23;;;;;;;5.28;3.38;;;;;;;24.70;100.00;98761.44;5074676;28;20036;-83
2022/08/23 09:57:49;;;;;;;4.28;3.25;;;;;;;24.51;100.00;98770.34;5079655;28;20071;-84
2022/08/23 10:00:16;;;;;;;3.33;3.03;;;;;;;24.75;100.00;98762.19;5081409;28;20024;-84
2022/08/23 10:02:43;;;;;;;3.75;3.45;;;;;;;24.90;100.00;98765.69;5072026;28;20081;-84
2022/08/23 10:05:14;;;;;;;4.55;2.95;;;;;;;24.92;100.00;98769.66;5085631;28;20119;-84
2022/08/23 10:07:42;;;;;;;6.45;3.30;;;;;;;24.80;100.00;98764.00;5076796;28;20031;-84
2022/08/23 10:10:26;;;;;;;4.15;3.20;;;;;;;24.57;100.00;98763.84;5076560;28;20482;-84
2022/08/23 10:12:54;;;;;;;4.07;3.30;;;;;;;24.15;100.00;98763.69;5082287;28;20043;-83
2022/08/23 10:15:58;;;;;;;4.78;3.92;;;;;;;24.13;100.00;98763.19;5081385;28;20032;-84
2022/08/23 10:18:45;;;;;;;4.85;3.55;;;;;;;24.10;100.00;98756.50;5083123;28;20024;-84
2022/08/23 10:21:52;;;;;;;3.70;3.40;;;;;;;24.28;100.00;98762.13;5076367;28;20032;-84
2022/08/23 10:24:57;;;;;;;3.90;3.60;;;;;;;24.43;100.00;98753.03;5078825;28;20573;-84
2022/08/23 10:30:43;;;;;;;3.20;2.90;;;;;;;24.58;100.00;98760.06;5077238;28;20047;-84
2022/08/23 10:33:23;;;;;;;3.53;3.22;;;;;;;24.55;100.00;98763.31;5083484;28;20032;-84
2022/08/23 10:36:26;;;;;;;5.43;3.58;;;;;;;24.81;100.00;98744.91;5084156;28;20032;-84
2022/08/23 10:39:09;;;;;;;3.42;3.13;;;;;;;25.10;100.00;98749.22;5051496;28;20079;-84
2022/08/23 10:42:00;;;;;;;3.35;3.05;;;;;;;25.09;100.00;98752.97;5084007;28;20031;-85
2022/08/23 10:44:41;;;;;;;5.78;3.92;;;;;;;24.91;100.00;98756.56;5081967;28;20035;-84
2022/08/23 10:47:33;;;;;;;5.68;3.20;;;;;;;24.99;100.00;98757.75;5066571;28;20125;-83
2022/08/23 10:50:04;;;;;;;4.30;3.28;;;;;;;24.39;100.00;98760.09;5060159;28;20425;-84
2022/08/23 10:52:37;;;;;;;4.00;3.60;;;;;;;24.28;100.00;98762.13;5080361;28;20367;-84
2022/08/23 10:55:16;;;;;;;5.53;3.70;;;;;;;24.10;100.00;98761.88;5063930;28;20028;-84
2022/08/23 10:57:46;;;;;;;3.70;3.15;;;;;;;24.01;100.00;98750.19;5082406;28;20470;-84
2022/08/23 11:00:25;;;;;;;5.13;3.30;;;;;;;24.15;100.00;98758.31;5080011;28;20103;-84
2022/08/23 11:03:16;;;;;;;3.00;2.67;;;;;;;24.21;100.00;98759.03;5061417;28;20059;-84
2022/08/23 11:05:42;;;;;;;4.18;3.00;;;;;;;24.54;100.00;98750.97;5079452;28;20024;-84
2022/08/23 11:08:11;;;;;;;4.90;3.10;;;;;;;24.72;100.00;98753.91;5080009;28;20029;-83
2022/08/23 11:10:36;;;;;;;4.90;2.97;;;;;;;24.87;100.00;98750.19;5083403;28;20020;-84
2022/08/23 11:13:14;;;;;;;6.15;2.90;;;;;;;25.13;100.00;98761.22;5081370;28;20043;-83
2022/08/23 11:15:55;;;;;;;8.23;3.38;;;;;;;24.50;100.00;98763.41;5082674;28;20032;-84
2022/08/23 11:18:32;;;;;;;2.95;2.72;;;;;;;24.98;100.00;98774.97;5076779;28;20078;-84
2022/08/23 11:21:05;;;;;;;3.92;3.53;;;;;;;24.89;100.00;98778.31;5077100;28;20030;-85
2022/08/23 11:23:58;;;;;;;3.70;3.33;;;;;;;24.86;100.00;98784.28;5076662;28;20036;-84
2022/08/23 11:26:27;;;;;;;3.45;3.15;;;;;;;24.71;100.00;98773.78;5070805;28;20583;-81
2022/08/23 11:28:55;;;;;;;4.03;3.20;;;;;;;24.52;100.00;98766.56;5085838;28;20044;-81
2022/08/23 11:31:49;;;;;;;5.22;3.90;;;;;;;24.69;100.00;98766.03;5078308;28;20117;-81
2022/08/23 11:34:20;;;;;;;;;;;;;;;25.18;100.00;98777.25;5071734;28;20116;-82
2022/08/23 11:37:23;;;;;;;3.88;3.17;;;;;;;25.42;100.00;98775.44;5075441;28;19965;-81
2022/08/23 11:39:58;;;;;;;4.80;3.35;;;;;;;24.88;100.00;98776.72;5071865;28;20036;-84
2022/08/23 11:42:43;;;;;;;6.15;3.40;;;;;;;24.82;100.00;98764.50;5084061;28;20070;-83